createdAt,value
2018-03-29T00:00:25.185Z,75.90
2018-03-29T00:02:52.773Z,76.30
2018-03-29T00:05:22.062Z,76.20
2018-03-29T00:07:50.218Z,76.70
2018-03-29T00:10:17.782Z,76.70
2018-03-29T00:12:45.477Z,77.80
2018-03-29T00:15:13.025Z,77.00
2018-03-29T00:17:40.698Z,76.90
2018-03-29T00:20:08.266Z,76.50
2018-03-29T00:22:35.817Z,77.00
2018-03-29T00:25:03.457Z,78.20
2018-03-29T00:27:31.120Z,79.20
2018-03-29T00:29:58.706Z,79.60
2018-03-29T00:32:26.299Z,80.30
2018-03-29T00:34:54.025Z,79.80
2018-03-29T00:37:22.420Z,80.00
2018-03-29T00:39:50.243Z,79.80
2018-03-29T00:42:17.853Z,80.40
2018-03-29T00:44:45.380Z,81.10
2018-03-29T00:47:12.953Z,81.10
2018-03-29T00:49:40.736Z,81.10
2018-03-29T00:52:08.424Z,80.90
2018-03-29T00:54:35.974Z,80.90
2018-03-29T00:57:03.663Z,81.90
2018-03-29T00:59:31.271Z,82.70
2018-03-29T01:01:58.823Z,81.60
2018-03-29T01:04:26.441Z,81.00
2018-03-29T01:06:54.082Z,80.80
2018-03-29T01:09:22.409Z,81.40
2018-03-29T01:11:51.228Z,82.00
2018-03-29T01:14:18.796Z,81.70
2018-03-29T01:16:46.392Z,81.80
2018-03-29T01:19:14.079Z,81.80
2018-03-29T01:21:41.724Z,82.40
2018-03-29T01:24:09.742Z,82.70
2018-03-29T01:26:37.327Z,83.10
2018-03-29T01:29:04.932Z,82.60
2018-03-29T01:31:32.481Z,82.90
2018-03-29T01:34:00.066Z,82.40
2018-03-29T01:36:27.657Z,81.60
2018-03-29T01:38:55.989Z,81.80
2018-03-29T01:41:23.636Z,81.70
2018-03-29T01:43:51.921Z,82.00
2018-03-29T01:46:20.988Z,82.40
2018-03-29T01:48:48.576Z,82.40
2018-03-29T01:51:16.139Z,82.20
2018-03-29T01:53:43.702Z,81.70
2018-03-29T01:56:11.336Z,81.00
2018-03-29T01:58:38.882Z,78.40
2018-03-29T02:01:06.478Z,79.80
2018-03-29T02:03:34.068Z,79.50
2018-03-29T02:06:01.676Z,79.40
2018-03-29T02:08:29.580Z,79.70
2018-03-29T02:10:57.183Z,79.10
2018-03-29T02:13:24.750Z,78.50
2018-03-29T02:15:53.345Z,78.40
2018-03-29T02:18:21.723Z,78.40
2018-03-29T02:20:49.291Z,78.00
2018-03-29T02:23:17.632Z,77.40
2018-03-29T02:25:45.218Z,77.40
2018-03-29T02:28:12.781Z,77.00
2018-03-29T02:30:40.380Z,77.90
2018-03-29T02:33:07.964Z,77.30
2018-03-29T02:35:36.460Z,78.30
2018-03-29T02:38:04.067Z,78.40
2018-03-29T02:40:31.688Z,77.80
2018-03-29T02:42:59.316Z,78.80
2018-03-29T02:45:27.010Z,79.10
2018-03-29T02:47:54.941Z,79.00
2018-03-29T02:50:22.590Z,78.60
2018-03-29T02:52:50.889Z,78.80
2018-03-29T02:55:18.870Z,79.00
2018-03-29T02:57:46.491Z,79.40
2018-03-29T03:00:15.072Z,78.80
2018-03-29T03:02:42.702Z,78.80
2018-03-29T03:05:10.265Z,78.70
2018-03-29T03:07:37.944Z,78.40
2018-03-29T03:10:05.573Z,78.60
2018-03-29T03:12:33.199Z,77.90
2018-03-29T03:15:00.794Z,77.70
2018-03-29T03:17:28.383Z,77.30
2018-03-29T03:19:55.935Z,77.10
2018-03-29T03:22:23.786Z,77.30
2018-03-29T03:24:52.285Z,77.30
2018-03-29T03:27:20.191Z,77.00
2018-03-29T03:29:47.904Z,76.60
2018-03-29T03:32:15.481Z,77.00
2018-03-29T03:34:43.023Z,76.50
2018-03-29T03:37:10.809Z,76.70
2018-03-29T03:39:39.114Z,77.00
2018-03-29T03:42:06.668Z,76.70
2018-03-29T03:44:34.316Z,77.00
2018-03-29T03:47:01.977Z,76.10
2018-03-29T03:49:29.520Z,76.20
2018-03-29T03:51:57.393Z,76.50
2018-03-29T03:54:25.702Z,77.40
2018-03-29T03:56:53.271Z,77.50
2018-03-29T03:59:21.345Z,77.70
2018-03-29T04:01:49.703Z,77.50
2018-03-29T04:04:17.306Z,77.50
2018-03-29T04:06:44.899Z,77.00
2018-03-29T04:09:12.489Z,77.10
2018-03-29T04:11:40.061Z,76.70
2018-03-29T04:14:07.969Z,76.10
2018-03-29T04:16:36.118Z,76.30
2018-03-29T04:19:05.019Z,77.40
2018-03-29T04:21:33.968Z,75.90
2018-03-29T04:24:01.564Z,76.00
2018-03-29T04:26:29.242Z,75.00
2018-03-29T04:28:57.495Z,74.70
2018-03-29T04:31:25.050Z,74.90
2018-03-29T04:33:52.577Z,74.80
2018-03-29T04:36:20.154Z,73.40
2018-03-29T04:38:47.739Z,72.60
2018-03-29T04:41:15.333Z,73.20
2018-03-29T04:43:43.029Z,73.70
2018-03-29T04:46:10.575Z,73.70
2018-03-29T04:48:38.223Z,73.70
2018-03-29T04:51:06.167Z,72.90
2018-03-29T04:53:33.998Z,72.20
2018-03-29T04:56:01.620Z,71.50
2018-03-29T04:58:29.227Z,71.00
2018-03-29T05:00:56.858Z,69.90
2018-03-29T05:03:24.436Z,70.80
2018-03-29T05:05:52.030Z,71.40
2018-03-29T05:08:19.633Z,71.10
2018-03-29T05:10:47.241Z,71.40
2018-03-29T05:13:15.636Z,70.70
2018-03-29T05:15:43.249Z,70.80
2018-03-29T05:18:10.966Z,70.40
2018-03-29T05:20:38.531Z,70.00
2018-03-29T05:23:06.269Z,70.90
2018-03-29T05:25:35.763Z,70.30
2018-03-29T05:28:09.208Z,70.50
2018-03-29T05:30:36.956Z,70.60
2018-03-29T05:33:04.951Z,69.90
2018-03-29T05:35:32.851Z,70.10
2018-03-29T05:38:00.598Z,69.50
2018-03-29T05:40:28.165Z,68.80
2018-03-29T05:42:55.729Z,68.90
2018-03-29T05:45:24.117Z,68.80
2018-03-29T05:47:51.662Z,68.70
2018-03-29T05:50:19.241Z,68.90
2018-03-29T05:52:48.092Z,68.30
2018-03-29T05:55:15.881Z,67.60
2018-03-29T05:57:43.529Z,68.50
2018-03-29T06:00:11.247Z,67.80
2018-03-29T06:02:38.812Z,67.90
2018-03-29T06:05:06.631Z,68.00
2018-03-29T06:07:35.088Z,68.00
2018-03-29T06:10:02.686Z,68.00
2018-03-29T06:12:31.140Z,67.40
2018-03-29T06:15:05.735Z,67.40
2018-03-29T06:17:35.801Z,66.00
2018-03-29T06:20:03.912Z,65.90
2018-03-29T06:22:31.635Z,65.90
2018-03-29T06:24:59.334Z,65.80
2018-03-29T06:27:27.885Z,65.80
2018-03-29T06:29:55.536Z,65.80
2018-03-29T06:32:23.211Z,66.00
2018-03-29T06:34:51.551Z,65.40
2018-03-29T06:37:19.247Z,65.50
2018-03-29T06:39:46.882Z,64.80
2018-03-29T06:42:15.279Z,63.70
2018-03-29T06:44:42.847Z,63.80
2018-03-29T06:47:10.629Z,64.60
2018-03-29T06:49:38.241Z,63.80
2018-03-29T06:52:07.002Z,63.00
2018-03-29T06:54:34.852Z,63.30
2018-03-29T06:57:03.939Z,62.40
2018-03-29T06:59:31.613Z,63.00
2018-03-29T07:02:00.148Z,60.90
2018-03-29T07:04:28.687Z,61.30
2018-03-29T07:06:56.278Z,60.70
2018-03-29T07:09:24.207Z,62.50
2018-03-29T07:11:51.821Z,61.10
2018-03-29T07:14:19.544Z,59.20
2018-03-29T07:16:48.019Z,59.10
2018-03-29T07:19:16.353Z,59.50
2018-03-29T07:21:44.175Z,59.50
2018-03-29T07:24:13.022Z,59.60
2018-03-29T07:26:40.711Z,58.90
2018-03-29T07:31:48.621Z,58.20
2018-03-29T07:34:16.332Z,57.90
2018-03-29T07:36:43.910Z,57.40
2018-03-29T07:39:11.591Z,56.60
2018-03-29T07:41:40.046Z,57.00
2018-03-29T07:44:07.740Z,57.10
2018-03-29T07:46:35.817Z,57.10
2018-03-29T07:49:04.023Z,56.80
2018-03-29T07:51:31.633Z,57.30
2018-03-29T07:53:59.253Z,57.10
2018-03-29T07:56:30.929Z,55.60
2018-03-29T07:58:59.324Z,56.00
2018-03-29T08:01:26.895Z,56.00
2018-03-29T08:03:54.468Z,54.80
2018-03-29T08:06:25.087Z,55.20
2018-03-29T08:08:51.683Z,54.30
2018-03-29T08:11:18.348Z,54.10
2018-03-29T08:13:45.804Z,54.10
2018-03-29T08:16:12.432Z,54.00
2018-03-29T08:18:39.116Z,54.40
2018-03-29T08:21:05.850Z,53.80
2018-03-29T08:23:33.210Z,53.70
2018-03-29T08:29:04.687Z,54.30
2018-03-29T08:31:33.064Z,53.00
2018-03-29T08:34:00.644Z,52.90
2018-03-29T08:36:29.010Z,52.80
2018-03-29T08:38:57.308Z,52.50
2018-03-29T08:41:25.835Z,52.40
2018-03-29T08:43:53.483Z,51.50
2018-03-29T08:46:21.092Z,51.20
2018-03-29T08:48:48.693Z,50.60
2018-03-29T08:51:16.288Z,51.00
2018-03-29T08:53:44.799Z,49.50
2018-03-29T08:56:12.368Z,49.50
2018-03-29T08:58:39.913Z,50.00
2018-03-29T09:01:07.607Z,49.20
2018-03-29T09:03:35.198Z,49.30
2018-03-29T09:06:04.407Z,49.40
2018-03-29T09:08:32.334Z,48.30
2018-03-29T09:10:59.969Z,49.00
2018-03-29T09:13:27.594Z,48.20
2018-03-29T09:15:56.084Z,45.70
2018-03-29T09:18:24.522Z,46.20
2018-03-29T09:20:52.125Z,46.20
2018-03-29T09:23:20.657Z,45.00
2018-03-29T09:25:48.415Z,44.90
2018-03-29T09:28:16.170Z,46.10
2018-03-29T09:30:44.643Z,46.00
2018-03-29T09:33:12.186Z,45.90
2018-03-29T09:35:39.774Z,47.00
2018-03-29T09:38:07.492Z,46.20
2018-03-29T09:40:35.783Z,45.40
2018-03-29T09:43:03.334Z,45.40
2018-03-29T09:45:31.400Z,44.80
2018-03-29T09:47:59.783Z,45.30
2018-03-29T09:50:27.353Z,45.30
2018-03-29T09:52:54.975Z,46.20
2018-03-29T09:55:23.298Z,46.50
2018-03-29T09:57:51.857Z,46.50
2018-03-29T10:00:25.190Z,46.10
2018-03-29T10:02:54.689Z,45.70
2018-03-29T10:05:28.132Z,44.40
2018-03-29T10:07:56.451Z,44.30
2018-03-29T10:10:24.159Z,44.30
2018-03-29T10:12:51.771Z,44.20
2018-03-29T10:15:24.659Z,44.10
2018-03-29T10:17:52.181Z,43.10
2018-03-29T10:20:20.924Z,42.70
2018-03-29T10:22:48.630Z,42.60
2018-03-29T10:25:18.134Z,42.30
2018-03-29T10:27:45.809Z,42.40
2018-03-29T10:30:13.416Z,41.50
2018-03-29T10:32:40.998Z,41.60
2018-03-29T10:35:09.319Z,42.20
2018-03-29T10:37:36.950Z,42.20
2018-03-29T10:40:05.265Z,42.20
2018-03-29T10:42:32.868Z,42.20
2018-03-29T10:45:01.244Z,42.90
2018-03-29T10:47:28.890Z,42.80
2018-03-29T10:49:56.448Z,43.40
2018-03-29T10:52:24.051Z,41.90
2018-03-29T10:54:51.586Z,42.50
2018-03-29T10:57:20.030Z,42.10
2018-03-29T10:59:47.637Z,42.00
2018-03-29T11:02:15.949Z,40.50
2018-03-29T11:04:43.498Z,40.50
2018-03-29T11:07:11.118Z,40.80
2018-03-29T11:09:39.463Z,38.10
2018-03-29T11:12:07.034Z,37.40
2018-03-29T11:14:34.618Z,37.00
2018-03-29T11:17:03.020Z,35.50
2018-03-29T11:19:30.592Z,35.50
2018-03-29T11:21:58.127Z,35.10
2018-03-29T11:24:25.684Z,34.80
2018-03-29T11:26:53.257Z,34.10
2018-03-29T11:29:20.801Z,35.70
2018-03-29T11:31:48.378Z,35.90
2018-03-29T11:34:16.902Z,37.20
2018-03-29T11:36:44.492Z,36.30
2018-03-29T11:39:14.036Z,36.40
2018-03-29T11:41:41.602Z,37.20
2018-03-29T11:44:09.143Z,37.40
2018-03-29T11:46:39.583Z,37.60
2018-03-29T11:49:08.125Z,39.00
2018-03-29T11:51:35.659Z,37.80
2018-03-29T11:54:10.652Z,37.50
2018-03-29T11:56:38.267Z,38.30
2018-03-29T11:59:06.608Z,38.10
2018-03-29T12:01:35.176Z,39.70
2018-03-29T12:04:04.781Z,38.50
2018-03-29T12:06:32.395Z,38.30
2018-03-29T12:09:00.997Z,38.80
2018-03-29T12:11:28.540Z,39.20
2018-03-29T12:13:57.164Z,38.40
2018-03-29T12:16:24.744Z,38.30
2018-03-29T12:18:52.322Z,38.80
2018-03-29T12:21:20.711Z,38.80
2018-03-29T12:23:49.021Z,38.40
2018-03-29T12:26:16.561Z,38.30
2018-03-29T12:28:45.564Z,37.80
2018-03-29T12:31:13.239Z,37.60
2018-03-29T12:33:40.805Z,37.00
2018-03-29T12:36:08.436Z,38.00
2018-03-29T12:38:35.973Z,37.00
2018-03-29T12:41:04.309Z,38.50
2018-03-29T12:43:31.901Z,38.60
2018-03-29T12:46:00.213Z,37.60
2018-03-29T12:48:27.770Z,37.60
2018-03-29T12:50:55.342Z,38.00
2018-03-29T12:53:22.919Z,37.80
2018-03-29T12:55:50.590Z,37.10
2018-03-29T12:58:18.190Z,37.50
2018-03-29T13:00:46.796Z,37.00
2018-03-29T13:03:14.652Z,36.90
2018-03-29T13:05:42.291Z,36.00
2018-03-29T13:08:10.604Z,36.90
2018-03-29T13:10:38.202Z,36.90
2018-03-29T13:13:06.556Z,36.70
2018-03-29T13:15:34.224Z,36.50
2018-03-29T13:18:01.913Z,35.50
2018-03-29T13:20:30.254Z,35.80
2018-03-29T13:22:57.855Z,35.80
2018-03-29T13:25:28.219Z,36.30
2018-03-29T13:27:56.586Z,36.30
2018-03-29T13:30:25.001Z,36.30
2018-03-29T13:32:54.564Z,36.30
2018-03-29T13:35:23.144Z,37.30
2018-03-29T13:37:50.781Z,37.10
2018-03-29T13:40:21.088Z,38.00
2018-03-29T13:42:49.434Z,38.20
2018-03-29T13:45:19.046Z,37.90
2018-03-29T13:47:46.658Z,38.40
2018-03-29T13:50:14.232Z,38.00
2018-03-29T13:52:42.445Z,38.00
2018-03-29T13:55:10.052Z,37.20
2018-03-29T13:57:37.631Z,37.70
2018-03-29T14:00:05.285Z,38.40
2018-03-29T14:02:34.670Z,38.80
2018-03-29T14:05:02.257Z,38.90
2018-03-29T14:07:29.862Z,39.30
2018-03-29T14:09:57.427Z,38.40
2018-03-29T14:12:25.772Z,38.70
2018-03-29T14:14:54.094Z,38.30
2018-03-29T14:17:21.650Z,38.30
2018-03-29T14:19:49.961Z,39.10
2018-03-29T14:22:17.531Z,39.10
2018-03-29T14:24:46.026Z,39.60
2018-03-29T14:27:13.577Z,39.60
2018-03-29T14:29:41.146Z,39.80
2018-03-29T14:32:08.689Z,39.60
2018-03-29T14:34:36.255Z,39.50
2018-03-29T14:37:03.864Z,39.70
2018-03-29T14:39:31.421Z,40.50
2018-03-29T14:41:59.505Z,41.80
2018-03-29T14:44:27.070Z,42.40
2018-03-29T14:46:55.715Z,42.40
2018-03-29T14:49:23.247Z,42.90
2018-03-29T14:51:51.736Z,43.90
2018-03-29T14:54:19.328Z,42.80
2018-03-29T14:56:46.882Z,43.90
2018-03-29T14:59:14.458Z,44.10
2018-03-29T15:01:41.999Z,45.60
2018-03-29T15:04:10.383Z,45.30
2018-03-29T15:06:39.108Z,45.30
2018-03-29T15:09:06.723Z,45.90
2018-03-29T15:11:35.207Z,49.50
2018-03-29T15:14:02.838Z,49.40
2018-03-29T15:16:30.622Z,50.40
2018-03-29T15:18:59.987Z,49.70
2018-03-29T15:21:27.700Z,49.70
2018-03-29T15:23:55.307Z,50.50
2018-03-29T15:26:22.987Z,51.00
2018-03-29T15:28:51.397Z,49.40
2018-03-29T15:31:19.009Z,49.40
2018-03-29T15:33:46.704Z,49.10
2018-03-29T15:36:15.072Z,48.40
2018-03-29T15:38:43.426Z,47.30
2018-03-29T15:41:11.020Z,47.30
2018-03-29T15:43:40.924Z,46.70
2018-03-29T15:46:09.274Z,47.10
2018-03-29T15:48:36.876Z,47.10
2018-03-29T15:51:04.490Z,47.70
2018-03-29T15:53:32.046Z,46.80
2018-03-29T15:55:59.963Z,47.00
2018-03-29T15:58:27.490Z,45.90
2018-03-29T16:00:55.040Z,46.50
2018-03-29T16:03:22.645Z,45.70
2018-03-29T16:05:50.212Z,46.30
2018-03-29T16:08:17.824Z,46.60
2018-03-29T16:10:46.155Z,46.40
2018-03-29T16:13:13.748Z,46.40
2018-03-29T16:15:41.302Z,46.80
2018-03-29T16:18:08.909Z,46.50
2018-03-29T16:20:36.488Z,46.00
2018-03-29T16:23:04.058Z,47.40
2018-03-29T16:25:31.721Z,47.90
2018-03-29T16:27:59.298Z,47.90
2018-03-29T16:30:26.902Z,48.70
2018-03-29T16:32:54.457Z,49.40
2018-03-29T16:35:22.057Z,49.10
2018-03-29T16:37:49.597Z,49.00
2018-03-29T16:40:18.003Z,49.60
2018-03-29T16:42:45.606Z,49.50
2018-03-29T16:45:13.212Z,49.00
2018-03-29T16:47:41.210Z,48.20
2018-03-29T16:50:08.757Z,48.30
2018-03-29T16:52:36.351Z,48.00
2018-03-29T16:55:04.737Z,48.70
2018-03-29T16:57:32.267Z,48.70
2018-03-29T16:59:59.904Z,49.30
2018-03-29T17:02:27.577Z,50.10
2018-03-29T17:04:55.188Z,49.90
2018-03-29T17:07:22.729Z,51.40
2018-03-29T17:09:51.087Z,50.40
2018-03-29T17:12:19.420Z,51.00
2018-03-29T17:14:46.970Z,51.10
2018-03-29T17:17:14.539Z,52.40
2018-03-29T17:19:42.144Z,53.00
2018-03-29T17:22:10.446Z,53.90
2018-03-29T17:24:37.992Z,53.90
2018-03-29T17:27:05.558Z,54.00
2018-03-29T17:29:33.128Z,54.60
2018-03-29T17:32:00.719Z,54.50
2018-03-29T17:34:28.684Z,54.70
2018-03-29T17:36:56.212Z,54.40
2018-03-29T17:39:23.746Z,54.50
2018-03-29T17:41:52.091Z,54.40
2018-03-29T17:44:19.644Z,54.40
2018-03-29T17:46:48.999Z,55.30
2018-03-29T17:49:16.603Z,54.70
2018-03-29T17:51:44.174Z,54.30
2018-03-29T17:54:11.750Z,54.40
2018-03-29T17:56:40.044Z,55.00
2018-03-29T17:59:07.782Z,55.00
2018-03-29T18:01:36.324Z,56.10
2018-03-29T18:04:03.932Z,56.10
2018-03-29T18:06:32.237Z,57.10
2018-03-29T18:08:59.855Z,57.10
2018-03-29T18:11:28.179Z,57.50
2018-03-29T18:13:55.744Z,57.50
2018-03-29T18:16:23.309Z,57.70
2018-03-29T18:18:50.868Z,57.90
2018-03-29T18:21:19.152Z,58.40
2018-03-29T18:23:46.756Z,58.40
2018-03-29T18:26:15.066Z,58.70
2018-03-29T18:28:42.634Z,58.70
2018-03-29T18:31:10.212Z,58.90
2018-03-29T18:33:37.766Z,59.30
2018-03-29T18:36:05.464Z,59.20
2018-03-29T18:38:33.061Z,59.50
2018-03-29T18:41:00.696Z,59.60
2018-03-29T18:43:30.078Z,60.00
2018-03-29T18:45:58.370Z,60.30
2018-03-29T18:48:25.943Z,60.30
2018-03-29T18:50:53.487Z,60.40
2018-03-29T18:53:21.030Z,60.40
2018-03-29T18:55:49.780Z,60.20
2018-03-29T18:58:17.413Z,60.20
2018-03-29T19:00:45.670Z,60.50
2018-03-29T19:03:13.565Z,60.50
2018-03-29T19:05:41.092Z,60.40
2018-03-29T19:08:08.619Z,60.60
2018-03-29T19:10:37.020Z,60.90
2018-03-29T19:13:04.575Z,60.60
2018-03-29T19:15:32.116Z,61.10
2018-03-29T19:18:00.464Z,60.80
2018-03-29T19:20:28.084Z,60.80
2018-03-29T19:22:55.628Z,61.60
2018-03-29T19:25:23.539Z,61.00
2018-03-29T19:27:51.400Z,61.00
2018-03-29T19:30:20.745Z,61.00
2018-03-29T19:32:50.048Z,61.20
2018-03-29T19:35:18.370Z,61.00
2018-03-29T19:37:45.976Z,61.00
2018-03-29T19:40:14.614Z,61.60
2018-03-29T19:42:42.164Z,61.40
2018-03-29T19:45:09.702Z,61.50
2018-03-29T19:47:37.350Z,61.20
2018-03-29T19:50:05.707Z,61.90
2018-03-29T19:52:33.255Z,61.90
2018-03-29T19:55:00.957Z,61.60
2018-03-29T19:57:28.514Z,61.50
2018-03-29T19:59:57.088Z,62.10
2018-03-29T20:02:25.444Z,62.50
2018-03-29T20:04:53.740Z,62.60
2018-03-29T20:07:22.119Z,62.90
2018-03-29T20:09:49.652Z,62.90
2018-03-29T20:12:17.220Z,63.20
2018-03-29T20:14:46.520Z,63.60
2018-03-29T20:17:14.950Z,64.00
2018-03-29T20:19:43.292Z,64.60
2018-03-29T20:22:11.582Z,64.70
2018-03-29T20:24:40.159Z,64.60
2018-03-29T20:27:07.721Z,65.00
2018-03-29T20:29:35.284Z,65.40
2018-03-29T20:32:02.919Z,65.50
2018-03-29T20:34:31.371Z,65.70
2018-03-29T20:36:58.964Z,65.60
2018-03-29T20:39:26.605Z,65.60
2018-03-29T20:41:55.433Z,66.50
2018-03-29T20:44:23.385Z,66.40
2018-03-29T20:46:50.945Z,66.40
2018-03-29T20:49:18.484Z,66.60
2018-03-29T20:51:48.587Z,67.30
2018-03-29T20:54:16.157Z,67.30
2018-03-29T20:56:45.959Z,67.90
2018-03-29T20:59:13.534Z,67.90
2018-03-29T21:01:42.816Z,68.50
2018-03-29T21:04:10.383Z,68.50
2018-03-29T21:06:38.734Z,68.30
2018-03-29T21:09:06.355Z,68.20
2018-03-29T21:11:33.887Z,68.60
2018-03-29T21:14:02.560Z,68.70
2018-03-29T21:16:31.834Z,69.10
2018-03-29T21:18:59.417Z,69.20
2018-03-29T21:21:28.729Z,69.70
2018-03-29T21:23:56.316Z,69.70
2018-03-29T21:26:24.677Z,70.00
2018-03-29T21:28:52.226Z,70.00
2018-03-29T21:31:19.799Z,70.30
2018-03-29T21:33:47.350Z,70.10
2018-03-29T21:36:14.882Z,70.00
2018-03-29T21:38:43.263Z,70.30
2018-03-29T21:41:11.575Z,70.50
2018-03-29T21:43:39.200Z,70.50
2018-03-29T21:46:07.601Z,70.30
2018-03-29T21:48:35.263Z,70.30
2018-03-29T21:51:02.789Z,70.40
2018-03-29T21:53:30.347Z,70.30
2018-03-29T21:55:57.938Z,70.70
2018-03-29T21:58:25.963Z,70.80
2018-03-29T22:00:53.638Z,71.20
2018-03-29T22:03:21.217Z,71.40
2018-03-29T22:05:49.506Z,71.30
2018-03-29T22:08:17.084Z,71.30
2018-03-29T22:10:44.626Z,71.40
2018-03-29T22:13:12.524Z,71.50
2018-03-29T22:15:40.095Z,71.10
2018-03-29T22:18:07.674Z,70.90
2018-03-29T22:20:36.016Z,71.20
2018-03-29T22:23:03.659Z,71.20
2018-03-29T22:25:32.209Z,71.40
2018-03-29T22:27:59.783Z,71.50
2018-03-29T22:30:27.360Z,71.20
2018-03-29T22:32:54.894Z,71.10
2018-03-29T22:35:22.459Z,71.60
2018-03-29T22:37:49.994Z,71.40
2018-03-29T22:40:18.319Z,71.20
2018-03-29T22:42:45.924Z,71.20
2018-03-29T22:45:14.327Z,71.30
2018-03-29T22:47:42.882Z,71.20
2018-03-29T22:50:11.179Z,71.40
2018-03-29T22:52:38.756Z,71.40
2018-03-29T22:55:06.296Z,71.70
2018-03-29T22:57:33.830Z,72.00
2018-03-29T23:02:29.759Z,72.40
2018-03-29T23:04:57.358Z,72.30
2018-03-29T23:07:25.717Z,72.60
2018-03-29T23:09:53.293Z,72.60
2018-03-29T23:12:20.863Z,72.50
2018-03-29T23:14:49.746Z,72.80
2018-03-29T23:17:18.079Z,72.10
2018-03-29T23:19:46.418Z,72.30
2018-03-29T23:22:14.173Z,72.30
2018-03-29T23:24:41.773Z,72.10
2018-03-29T23:27:09.357Z,72.50
2018-03-29T23:29:37.620Z,72.50
2018-03-29T23:32:06.029Z,73.20
2018-03-29T23:34:34.364Z,73.20
2018-03-29T23:37:10.581Z,73.00
2018-03-29T23:39:39.128Z,73.20
2018-03-29T23:42:07.438Z,72.60
2018-03-29T23:44:35.889Z,72.40
2018-03-29T23:47:03.534Z,72.40
2018-03-29T23:49:31.103Z,72.40
2018-03-29T23:51:58.678Z,72.60
2018-03-29T23:54:27.019Z,73.20
2018-03-29T23:56:55.358Z,73.60
2018-03-29T23:59:22.980Z,73.50
